sensor_id;sensor_type;location;lat;lon;timestamp;P1;durP1;ratioP1;P2;durP2;ratioP2
19343;SDS011;9808;52.402;16.678;2022-12-07T00:01:13;19.60;;;7.77;;
19343;SDS011;9808;52.402;16.678;2022-12-07T00:03:41;17.17;;;7.83;;
19343;SDS011;9808;52.402;16.678;2022-12-07T00:06:09;19.83;;;7.97;;
19343;SDS011;9808;52.402;16.678;2022-12-07T00:08:37;17.20;;;7.30;;
19343;SDS011;9808;52.402;16.678;2022-12-07T00:11:08;18.43;;;8.47;;
19343;SDS011;9808;52.402;16.678;2022-12-07T00:13:36;19.20;;;8.63;;
19343;SDS011;9808;52.402;16.678;2022-12-07T00:16:05;18.57;;;8.40;;
19343;SDS011;9808;52.402;16.678;2022-12-07T00:18:32;22.20;;;8.70;;
19343;SDS011;9808;52.402;16.678;2022-12-07T00:21:00;17.13;;;8.03;;
19343;SDS011;9808;52.402;16.678;2022-12-07T00:23:28;20.50;;;9.17;;
19343;SDS011;9808;52.402;16.678;2022-12-07T00:25:55;21.93;;;9.03;;
19343;SDS011;9808;52.402;16.678;2022-12-07T00:28:22;24.73;;;10.13;;
19343;SDS011;9808;52.402;16.678;2022-12-07T00:30:49;24.03;;;9.80;;
19343;SDS011;9808;52.402;16.678;2022-12-07T00:33:16;21.90;;;9.60;;
19343;SDS011;9808;52.402;16.678;2022-12-07T00:35:43;22.07;;;9.57;;
19343;SDS011;9808;52.402;16.678;2022-12-07T00:38:10;19.60;;;9.13;;
19343;SDS011;9808;52.402;16.678;2022-12-07T00:40:38;20.37;;;9.23;;
19343;SDS011;9808;52.402;16.678;2022-12-07T00:43:05;25.57;;;10.63;;
19343;SDS011;9808;52.402;16.678;2022-12-07T00:45:32;23.73;;;9.43;;
19343;SDS011;9808;52.402;16.678;2022-12-07T00:47:59;25.93;;;10.50;;
19343;SDS011;9808;52.402;16.678;2022-12-07T00:50:26;24.07;;;10.00;;
19343;SDS011;9808;52.402;16.678;2022-12-07T00:52:54;26.47;;;9.90;;
19343;SDS011;9808;52.402;16.678;2022-12-07T00:55:21;26.27;;;10.50;;
19343;SDS011;9808;52.402;16.678;2022-12-07T00:57:48;26.90;;;10.77;;
19343;SDS011;9808;52.402;16.678;2022-12-07T01:00:15;24.30;;;9.73;;
19343;SDS011;9808;52.402;16.678;2022-12-07T01:02:42;26.20;;;9.50;;
19343;SDS011;9808;52.402;16.678;2022-12-07T01:05:09;22.27;;;8.90;;
19343;SDS011;9808;52.402;16.678;2022-12-07T01:07:36;26.90;;;10.33;;
19343;SDS011;9808;52.402;16.678;2022-12-07T01:10:04;24.57;;;10.00;;
19343;SDS011;9808;52.402;16.678;2022-12-07T01:12:32;21.07;;;9.70;;
19343;SDS011;9808;52.402;16.678;2022-12-07T01:14:59;23.73;;;9.60;;
19343;SDS011;9808;52.402;16.678;2022-12-07T01:17:27;21.33;;;9.70;;
19343;SDS011;9808;52.402;16.678;2022-12-07T01:19:54;23.83;;;9.67;;
19343;SDS011;9808;52.402;16.678;2022-12-07T01:22:22;22.67;;;10.00;;
19343;SDS011;9808;52.402;16.678;2022-12-07T01:24:49;22.20;;;9.77;;
19343;SDS011;9808;52.402;16.678;2022-12-07T01:27:16;22.70;;;10.40;;
19343;SDS011;9808;52.402;16.678;2022-12-07T01:29:43;24.33;;;10.10;;
19343;SDS011;9808;52.402;16.678;2022-12-07T01:32:10;25.07;;;9.80;;
19343;SDS011;9808;52.402;16.678;2022-12-07T01:34:37;20.07;;;9.40;;
19343;SDS011;9808;52.402;16.678;2022-12-07T01:37:05;25.23;;;10.30;;
19343;SDS011;9808;52.402;16.678;2022-12-07T01:39:32;24.17;;;9.07;;
19343;SDS011;9808;52.402;16.678;2022-12-07T01:41:59;21.80;;;9.30;;
19343;SDS011;9808;52.402;16.678;2022-12-07T01:44:27;22.93;;;8.60;;
19343;SDS011;9808;52.402;16.678;2022-12-07T01:46:59;23.53;;;9.80;;
19343;SDS011;9808;52.402;16.678;2022-12-07T01:49:31;21.67;;;8.83;;
19343;SDS011;9808;52.402;16.678;2022-12-07T01:52:20;20.33;;;9.03;;
19343;SDS011;9808;52.402;16.678;2022-12-07T01:54:49;22.60;;;9.80;;
19343;SDS011;9808;52.402;16.678;2022-12-07T01:57:17;22.47;;;9.47;;
19343;SDS011;9808;52.402;16.678;2022-12-07T01:59:45;22.60;;;9.67;;
19343;SDS011;9808;52.402;16.678;2022-12-07T02:02:15;22.50;;;9.87;;
19343;SDS011;9808;52.402;16.678;2022-12-07T02:04:45;19.97;;;9.23;;
19343;SDS011;9808;52.402;16.678;2022-12-07T02:07:12;19.73;;;8.63;;
19343;SDS011;9808;52.402;16.678;2022-12-07T02:09:39;20.67;;;9.27;;
19343;SDS011;9808;52.402;16.678;2022-12-07T02:12:07;21.40;;;9.27;;
19343;SDS011;9808;52.402;16.678;2022-12-07T02:14:34;18.87;;;9.23;;
19343;SDS011;9808;52.402;16.678;2022-12-07T02:17:11;20.50;;;9.30;;
19343;SDS011;9808;52.402;16.678;2022-12-07T02:20:27;17.70;;;8.87;;
19343;SDS011;9808;52.402;16.678;2022-12-07T02:22:44;16.90;;;8.83;;
19343;SDS011;9808;52.402;16.678;2022-12-07T02:27:47;16.37;;;8.10;;
19343;SDS011;9808;52.402;16.678;2022-12-07T02:30:20;19.53;;;9.13;;
19343;SDS011;9808;52.402;16.678;2022-12-07T02:32:57;16.57;;;8.27;;
19343;SDS011;9808;52.402;16.678;2022-12-07T02:40:53;17.47;;;8.83;;
19343;SDS011;9808;52.402;16.678;2022-12-07T02:43:25;17.33;;;8.77;;
19343;SDS011;9808;52.402;16.678;2022-12-07T02:45:54;18.53;;;8.80;;
19343;SDS011;9808;52.402;16.678;2022-12-07T02:48:22;17.50;;;8.80;;
19343;SDS011;9808;52.402;16.678;2022-12-07T02:50:50;18.20;;;8.97;;
19343;SDS011;9808;52.402;16.678;2022-12-07T02:55:57;19.27;;;8.53;;
19343;SDS011;9808;52.402;16.678;2022-12-07T02:58:32;19.87;;;9.50;;
19343;SDS011;9808;52.402;16.678;2022-12-07T03:01:48;22.10;;;9.87;;
19343;SDS011;9808;52.402;16.678;2022-12-07T03:04:00;17.57;;;7.90;;
19343;SDS011;9808;52.402;16.678;2022-12-07T03:06:31;17.73;;;9.10;;
19343;SDS011;9808;52.402;16.678;2022-12-07T03:11:39;17.60;;;9.03;;
19343;SDS011;9808;52.402;16.678;2022-12-07T03:16:40;17.33;;;8.33;;
19343;SDS011;9808;52.402;16.678;2022-12-07T03:19:13;18.67;;;9.03;;
19343;SDS011;9808;52.402;16.678;2022-12-07T03:21:42;19.20;;;9.37;;
19343;SDS011;9808;52.402;16.678;2022-12-07T03:24:11;16.57;;;8.70;;
19343;SDS011;9808;52.402;16.678;2022-12-07T03:26:44;16.83;;;8.83;;
19343;SDS011;9808;52.402;16.678;2022-12-07T03:29:18;20.93;;;8.87;;
19343;SDS011;9808;52.402;16.678;2022-12-07T03:31:47;16.53;;;8.50;;
19343;SDS011;9808;52.402;16.678;2022-12-07T03:36:58;20.47;;;9.57;;
19343;SDS011;9808;52.402;16.678;2022-12-07T03:39:36;18.60;;;9.60;;
19343;SDS011;9808;52.402;16.678;2022-12-07T03:42:05;16.27;;;8.37;;
19343;SDS011;9808;52.402;16.678;2022-12-07T03:44:33;17.30;;;8.63;;
19343;SDS011;9808;52.402;16.678;2022-12-07T03:49:51;15.77;;;8.87;;
19343;SDS011;9808;52.402;16.678;2022-12-07T03:52:28;18.30;;;8.37;;
19343;SDS011;9808;52.402;16.678;2022-12-07T03:55:04;18.83;;;9.50;;
19343;SDS011;9808;52.402;16.678;2022-12-07T03:57:33;18.40;;;8.47;;
19343;SDS011;9808;52.402;16.678;2022-12-07T04:00:03;16.60;;;8.10;;
19343;SDS011;9808;52.402;16.678;2022-12-07T04:02:31;17.53;;;8.90;;
19343;SDS011;9808;52.402;16.678;2022-12-07T04:04:59;16.47;;;8.13;;
19343;SDS011;9808;52.402;16.678;2022-12-07T04:07:26;16.13;;;8.60;;
19343;SDS011;9808;52.402;16.678;2022-12-07T04:09:54;17.83;;;8.70;;
19343;SDS011;9808;52.402;16.678;2022-12-07T04:12:21;15.60;;;7.97;;
19343;SDS011;9808;52.402;16.678;2022-12-07T04:14:48;18.07;;;9.10;;
19343;SDS011;9808;52.402;16.678;2022-12-07T04:17:16;17.23;;;8.70;;
19343;SDS011;9808;52.402;16.678;2022-12-07T04:19:43;18.17;;;8.43;;
19343;SDS011;9808;52.402;16.678;2022-12-07T04:22:10;16.93;;;8.37;;
19343;SDS011;9808;52.402;16.678;2022-12-07T04:24:38;19.00;;;9.10;;
19343;SDS011;9808;52.402;16.678;2022-12-07T04:27:05;17.87;;;8.63;;
19343;SDS011;9808;52.402;16.678;2022-12-07T04:29:32;16.17;;;8.27;;
19343;SDS011;9808;52.402;16.678;2022-12-07T04:31:59;17.50;;;9.17;;
19343;SDS011;9808;52.402;16.678;2022-12-07T04:34:27;15.73;;;7.83;;
19343;SDS011;9808;52.402;16.678;2022-12-07T04:36:54;18.40;;;8.37;;
19343;SDS011;9808;52.402;16.678;2022-12-07T04:39:26;15.67;;;8.10;;
19343;SDS011;9808;52.402;16.678;2022-12-07T04:41:53;17.17;;;7.93;;
19343;SDS011;9808;52.402;16.678;2022-12-07T04:44:21;14.53;;;8.13;;
19343;SDS011;9808;52.402;16.678;2022-12-07T04:46:49;16.83;;;8.70;;
19343;SDS011;9808;52.402;16.678;2022-12-07T04:49:16;16.57;;;8.43;;
19343;SDS011;9808;52.402;16.678;2022-12-07T04:51:44;15.73;;;7.80;;
19343;SDS011;9808;52.402;16.678;2022-12-07T04:54:11;15.73;;;7.67;;
19343;SDS011;9808;52.402;16.678;2022-12-07T04:56:39;13.67;;;7.50;;
19343;SDS011;9808;52.402;16.678;2022-12-07T04:59:06;17.40;;;8.47;;
19343;SDS011;9808;52.402;16.678;2022-12-07T05:01:34;17.70;;;7.90;;
19343;SDS011;9808;52.402;16.678;2022-12-07T05:04:01;16.53;;;8.40;;
19343;SDS011;9808;52.402;16.678;2022-12-07T05:06:29;14.83;;;7.60;;
19343;SDS011;9808;52.402;16.678;2022-12-07T05:08:56;12.97;;;7.67;;
19343;SDS011;9808;52.402;16.678;2022-12-07T05:11:23;14.30;;;7.37;;
19343;SDS011;9808;52.402;16.678;2022-12-07T05:16:33;16.37;;;7.80;;
19343;SDS011;9808;52.402;16.678;2022-12-07T05:19:01;16.27;;;7.30;;
19343;SDS011;9808;52.402;16.678;2022-12-07T05:21:28;15.00;;;7.73;;
19343;SDS011;9808;52.402;16.678;2022-12-07T05:23:55;16.37;;;8.27;;
19343;SDS011;9808;52.402;16.678;2022-12-07T05:26:22;15.43;;;7.33;;
19343;SDS011;9808;52.402;16.678;2022-12-07T05:28:51;21.00;;;7.77;;
19343;SDS011;9808;52.402;16.678;2022-12-07T05:31:18;15.53;;;7.50;;
19343;SDS011;9808;52.402;16.678;2022-12-07T05:33:46;15.53;;;7.83;;
19343;SDS011;9808;52.402;16.678;2022-12-07T05:36:13;16.33;;;8.00;;
19343;SDS011;9808;52.402;16.678;2022-12-07T05:38:40;14.17;;;7.80;;
19343;SDS011;9808;52.402;16.678;2022-12-07T05:41:08;15.37;;;7.60;;
19343;SDS011;9808;52.402;16.678;2022-12-07T05:43:58;15.20;;;7.67;;
19343;SDS011;9808;52.402;16.678;2022-12-07T05:46:25;13.73;;;7.07;;
19343;SDS011;9808;52.402;16.678;2022-12-07T05:48:52;15.77;;;7.00;;
19343;SDS011;9808;52.402;16.678;2022-12-07T05:51:19;12.80;;;6.23;;
19343;SDS011;9808;52.402;16.678;2022-12-07T05:53:46;14.43;;;6.60;;
19343;SDS011;9808;52.402;16.678;2022-12-07T05:56:14;12.60;;;6.00;;
19343;SDS011;9808;52.402;16.678;2022-12-07T05:58:41;11.13;;;6.00;;
19343;SDS011;9808;52.402;16.678;2022-12-07T06:01:27;14.87;;;6.37;;
19343;SDS011;9808;52.402;16.678;2022-12-07T06:03:54;11.57;;;6.07;;
19343;SDS011;9808;52.402;16.678;2022-12-07T06:06:21;11.70;;;5.67;;
19343;SDS011;9808;52.402;16.678;2022-12-07T06:08:48;11.33;;;5.80;;
19343;SDS011;9808;52.402;16.678;2022-12-07T06:11:16;11.77;;;5.53;;
19343;SDS011;9808;52.402;16.678;2022-12-07T06:14:02;11.90;;;6.13;;
19343;SDS011;9808;52.402;16.678;2022-12-07T06:16:29;12.37;;;5.90;;
19343;SDS011;9808;52.402;16.678;2022-12-07T06:18:56;13.07;;;5.50;;
19343;SDS011;9808;52.402;16.678;2022-12-07T06:21:23;12.57;;;6.20;;
19343;SDS011;9808;52.402;16.678;2022-12-07T06:23:52;11.07;;;5.83;;
19343;SDS011;9808;52.402;16.678;2022-12-07T06:26:19;13.23;;;6.20;;
19343;SDS011;9808;52.402;16.678;2022-12-07T06:28:47;11.37;;;6.17;;
19343;SDS011;9808;52.402;16.678;2022-12-07T06:31:14;13.43;;;5.87;;
19343;SDS011;9808;52.402;16.678;2022-12-07T06:33:41;11.50;;;6.13;;
19343;SDS011;9808;52.402;16.678;2022-12-07T06:36:09;14.33;;;5.97;;
19343;SDS011;9808;52.402;16.678;2022-12-07T06:38:36;11.30;;;5.53;;
19343;SDS011;9808;52.402;16.678;2022-12-07T06:41:03;14.13;;;5.57;;
19343;SDS011;9808;52.402;16.678;2022-12-07T06:43:31;12.10;;;5.73;;
19343;SDS011;9808;52.402;16.678;2022-12-07T06:45:58;12.03;;;5.67;;
19343;SDS011;9808;52.402;16.678;2022-12-07T06:48:25;10.77;;;5.60;;
19343;SDS011;9808;52.402;16.678;2022-12-07T06:50:52;10.53;;;5.33;;
19343;SDS011;9808;52.402;16.678;2022-12-07T06:53:21;11.00;;;5.33;;
19343;SDS011;9808;52.402;16.678;2022-12-07T06:55:48;13.13;;;5.33;;
19343;SDS011;9808;52.402;16.678;2022-12-07T06:58:15;14.57;;;7.00;;
19343;SDS011;9808;52.402;16.678;2022-12-07T07:00:43;11.23;;;5.70;;
19343;SDS011;9808;52.402;16.678;2022-12-07T07:03:10;10.33;;;5.13;;
19343;SDS011;9808;52.402;16.678;2022-12-07T07:05:37;10.33;;;4.30;;
19343;SDS011;9808;52.402;16.678;2022-12-07T07:08:05;8.90;;;4.23;;
19343;SDS011;9808;52.402;16.678;2022-12-07T07:10:49;9.30;;;3.50;;
19343;SDS011;9808;52.402;16.678;2022-12-07T07:13:16;7.33;;;3.60;;
19343;SDS011;9808;52.402;16.678;2022-12-07T07:15:44;7.23;;;3.73;;
19343;SDS011;9808;52.402;16.678;2022-12-07T07:18:11;7.63;;;3.70;;
19343;SDS011;9808;52.402;16.678;2022-12-07T07:20:38;8.83;;;3.73;;
19343;SDS011;9808;52.402;16.678;2022-12-07T07:23:05;8.63;;;3.97;;
19343;SDS011;9808;52.402;16.678;2022-12-07T07:25:33;8.47;;;4.13;;
19343;SDS011;9808;52.402;16.678;2022-12-07T07:28:00;9.13;;;4.17;;
19343;SDS011;9808;52.402;16.678;2022-12-07T07:30:27;11.57;;;4.47;;
19343;SDS011;9808;52.402;16.678;2022-12-07T07:33:01;9.93;;;4.40;;
19343;SDS011;9808;52.402;16.678;2022-12-07T07:35:29;9.90;;;4.60;;
19343;SDS011;9808;52.402;16.678;2022-12-07T07:37:56;12.00;;;5.03;;
19343;SDS011;9808;52.402;16.678;2022-12-07T07:40:24;12.43;;;5.60;;
19343;SDS011;9808;52.402;16.678;2022-12-07T07:42:52;13.47;;;5.67;;
19343;SDS011;9808;52.402;16.678;2022-12-07T07:45:20;11.93;;;5.50;;
19343;SDS011;9808;52.402;16.678;2022-12-07T07:47:47;13.20;;;5.63;;
19343;SDS011;9808;52.402;16.678;2022-12-07T07:50:15;13.23;;;6.30;;
19343;SDS011;9808;52.402;16.678;2022-12-07T07:52:42;12.17;;;5.83;;
19343;SDS011;9808;52.402;16.678;2022-12-07T07:55:09;10.33;;;5.03;;
19343;SDS011;9808;52.402;16.678;2022-12-07T07:57:37;13.63;;;5.53;;
19343;SDS011;9808;52.402;16.678;2022-12-07T08:12:47;17.87;;;7.63;;
19343;SDS011;9808;52.402;16.678;2022-12-07T08:15:33;18.03;;;7.70;;
19343;SDS011;9808;52.402;16.678;2022-12-07T08:18:03;15.90;;;7.97;;
19343;SDS011;9808;52.402;16.678;2022-12-07T08:20:31;16.83;;;8.50;;
19343;SDS011;9808;52.402;16.678;2022-12-07T08:22:59;18.43;;;8.63;;
19343;SDS011;9808;52.402;16.678;2022-12-07T08:25:26;18.50;;;8.63;;
19343;SDS011;9808;52.402;16.678;2022-12-07T08:27:54;16.80;;;8.33;;
19343;SDS011;9808;52.402;16.678;2022-12-07T08:30:21;17.90;;;8.23;;
19343;SDS011;9808;52.402;16.678;2022-12-07T08:32:48;17.90;;;8.50;;
19343;SDS011;9808;52.402;16.678;2022-12-07T08:35:15;15.47;;;7.57;;
19343;SDS011;9808;52.402;16.678;2022-12-07T08:37:43;14.53;;;6.93;;
19343;SDS011;9808;52.402;16.678;2022-12-07T08:40:10;14.23;;;7.83;;
19343;SDS011;9808;52.402;16.678;2022-12-07T08:42:47;16.23;;;8.10;;
19343;SDS011;9808;52.402;16.678;2022-12-07T08:45:15;17.03;;;8.13;;
19343;SDS011;9808;52.402;16.678;2022-12-07T08:47:50;22.33;;;10.33;;
19343;SDS011;9808;52.402;16.678;2022-12-07T08:50:19;16.47;;;8.07;;
19343;SDS011;9808;52.402;16.678;2022-12-07T08:52:50;17.93;;;8.37;;
19343;SDS011;9808;52.402;16.678;2022-12-07T08:55:19;21.10;;;8.73;;
19343;SDS011;9808;52.402;16.678;2022-12-07T08:57:47;18.73;;;8.93;;
19343;SDS011;9808;52.402;16.678;2022-12-07T09:00:14;20.20;;;9.23;;
19343;SDS011;9808;52.402;16.678;2022-12-07T09:02:43;22.60;;;8.90;;
19343;SDS011;9808;52.402;16.678;2022-12-07T09:05:11;18.90;;;8.90;;
19343;SDS011;9808;52.402;16.678;2022-12-07T09:07:46;22.10;;;9.77;;
19343;SDS011;9808;52.402;16.678;2022-12-07T09:10:15;18.83;;;9.37;;
19343;SDS011;9808;52.402;16.678;2022-12-07T09:12:42;19.13;;;9.93;;
19343;SDS011;9808;52.402;16.678;2022-12-07T09:15:09;18.43;;;9.30;;
19343;SDS011;9808;52.402;16.678;2022-12-07T09:17:36;18.60;;;9.67;;
19343;SDS011;9808;52.402;16.678;2022-12-07T09:20:04;20.80;;;9.83;;
19343;SDS011;9808;52.402;16.678;2022-12-07T09:22:32;17.87;;;9.53;;
19343;SDS011;9808;52.402;16.678;2022-12-07T09:24:59;23.03;;;10.23;;
19343;SDS011;9808;52.402;16.678;2022-12-07T09:27:27;21.57;;;10.63;;
19343;SDS011;9808;52.402;16.678;2022-12-07T09:29:54;23.07;;;10.33;;
19343;SDS011;9808;52.402;16.678;2022-12-07T09:32:21;23.07;;;11.60;;
19343;SDS011;9808;52.402;16.678;2022-12-07T09:34:49;26.53;;;11.73;;
19343;SDS011;9808;52.402;16.678;2022-12-07T09:37:16;23.13;;;11.57;;
19343;SDS011;9808;52.402;16.678;2022-12-07T09:39:44;29.20;;;12.73;;
19343;SDS011;9808;52.402;16.678;2022-12-07T09:42:34;24.90;;;11.47;;
19343;SDS011;9808;52.402;16.678;2022-12-07T09:45:02;23.80;;;12.00;;
19343;SDS011;9808;52.402;16.678;2022-12-07T09:47:31;23.93;;;11.77;;
19343;SDS011;9808;52.402;16.678;2022-12-07T09:50:03;22.80;;;10.97;;
19343;SDS011;9808;52.402;16.678;2022-12-07T09:52:31;26.60;;;11.10;;
19343;SDS011;9808;52.402;16.678;2022-12-07T09:55:08;26.37;;;12.13;;
19343;SDS011;9808;52.402;16.678;2022-12-07T09:57:36;23.17;;;11.00;;
19343;SDS011;9808;52.402;16.678;2022-12-07T10:00:04;29.90;;;12.57;;
19343;SDS011;9808;52.402;16.678;2022-12-07T10:02:38;24.70;;;11.63;;
19343;SDS011;9808;52.402;16.678;2022-12-07T10:05:06;24.90;;;11.40;;
19343;SDS011;9808;52.402;16.678;2022-12-07T10:07:34;27.13;;;12.37;;
19343;SDS011;9808;52.402;16.678;2022-12-07T10:10:03;29.63;;;12.93;;
19343;SDS011;9808;52.402;16.678;2022-12-07T10:12:30;61.13;;;23.07;;
19343;SDS011;9808;52.402;16.678;2022-12-07T10:15:01;33.40;;;14.47;;
19343;SDS011;9808;52.402;16.678;2022-12-07T10:17:37;25.60;;;10.57;;
19343;SDS011;9808;52.402;16.678;2022-12-07T10:20:14;22.70;;;9.90;;
19343;SDS011;9808;52.402;16.678;2022-12-07T10:25:28;19.57;;;9.53;;
19343;SDS011;9808;52.402;16.678;2022-12-07T10:27:59;19.57;;;9.47;;
19343;SDS011;9808;52.402;16.678;2022-12-07T10:30:26;19.93;;;9.17;;
19343;SDS011;9808;52.402;16.678;2022-12-07T10:32:53;21.30;;;10.20;;
19343;SDS011;9808;52.402;16.678;2022-12-07T10:35:28;18.63;;;10.03;;
19343;SDS011;9808;52.402;16.678;2022-12-07T10:37:57;23.77;;;10.87;;
19343;SDS011;9808;52.402;16.678;2022-12-07T10:43:05;22.53;;;10.73;;
19343;SDS011;9808;52.402;16.678;2022-12-07T10:45:34;24.17;;;12.33;;
19343;SDS011;9808;52.402;16.678;2022-12-07T11:01:45;25.60;;;13.57;;
19343;SDS011;9808;52.402;16.678;2022-12-07T11:15:04;24.60;;;13.27;;
19343;SDS011;9808;52.402;16.678;2022-12-07T11:17:40;26.03;;;11.87;;
19343;SDS011;9808;52.402;16.678;2022-12-07T11:20:15;22.60;;;12.27;;
19343;SDS011;9808;52.402;16.678;2022-12-07T11:22:49;22.67;;;11.90;;
19343;SDS011;9808;52.402;16.678;2022-12-07T11:28:03;25.87;;;12.43;;
19343;SDS011;9808;52.402;16.678;2022-12-07T11:33:18;29.87;;;13.30;;
19343;SDS011;9808;52.402;16.678;2022-12-07T11:36:02;25.63;;;11.50;;
19343;SDS011;9808;52.402;16.678;2022-12-07T11:38:49;30.13;;;12.23;;
19343;SDS011;9808;52.402;16.678;2022-12-07T11:41:20;24.63;;;11.57;;
19343;SDS011;9808;52.402;16.678;2022-12-07T11:46:24;29.00;;;13.60;;
19343;SDS011;9808;52.402;16.678;2022-12-07T11:48:57;26.60;;;12.87;;
19343;SDS011;9808;52.402;16.678;2022-12-07T11:51:25;27.03;;;12.83;;
19343;SDS011;9808;52.402;16.678;2022-12-07T11:54:00;26.33;;;12.10;;
19343;SDS011;9808;52.402;16.678;2022-12-07T11:56:32;29.10;;;13.33;;
19343;SDS011;9808;52.402;16.678;2022-12-07T11:59:10;23.27;;;12.13;;
19343;SDS011;9808;52.402;16.678;2022-12-07T12:01:48;29.00;;;12.83;;
19343;SDS011;9808;52.402;16.678;2022-12-07T12:06:50;28.97;;;13.07;;
19343;SDS011;9808;52.402;16.678;2022-12-07T12:20:54;25.23;;;11.07;;
19343;SDS011;9808;52.402;16.678;2022-12-07T12:26:03;22.90;;;11.90;;
19343;SDS011;9808;52.402;16.678;2022-12-07T12:33:49;22.60;;;11.20;;
19343;SDS011;9808;52.402;16.678;2022-12-07T12:51:56;19.67;;;10.20;;
19343;SDS011;9808;52.402;16.678;2022-12-07T12:54:25;19.37;;;8.47;;
19343;SDS011;9808;52.402;16.678;2022-12-07T12:59:25;17.87;;;9.13;;
19343;SDS011;9808;52.402;16.678;2022-12-07T13:01:54;16.83;;;9.03;;
19343;SDS011;9808;52.402;16.678;2022-12-07T13:04:25;15.60;;;8.50;;
19343;SDS011;9808;52.402;16.678;2022-12-07T13:06:53;14.90;;;7.10;;
19343;SDS011;9808;52.402;16.678;2022-12-07T13:09:25;19.60;;;7.63;;
19343;SDS011;9808;52.402;16.678;2022-12-07T13:12:01;15.27;;;7.07;;
19343;SDS011;9808;52.402;16.678;2022-12-07T13:14:39;14.23;;;7.03;;
19343;SDS011;9808;52.402;16.678;2022-12-07T13:17:11;17.50;;;7.33;;
19343;SDS011;9808;52.402;16.678;2022-12-07T13:22:33;19.80;;;7.37;;
19343;SDS011;9808;52.402;16.678;2022-12-07T13:25:26;16.73;;;8.33;;
19343;SDS011;9808;52.402;16.678;2022-12-07T13:27:57;16.37;;;7.93;;
19343;SDS011;9808;52.402;16.678;2022-12-07T13:30:30;14.73;;;7.87;;
19343;SDS011;9808;52.402;16.678;2022-12-07T13:48:32;13.57;;;6.43;;
19343;SDS011;9808;52.402;16.678;2022-12-07T13:51:02;13.07;;;6.30;;
19343;SDS011;9808;52.402;16.678;2022-12-07T13:53:29;10.03;;;5.57;;
19343;SDS011;9808;52.402;16.678;2022-12-07T13:56:00;11.90;;;6.17;;
19343;SDS011;9808;52.402;16.678;2022-12-07T13:58:29;12.00;;;5.80;;
19343;SDS011;9808;52.402;16.678;2022-12-07T14:00:57;11.43;;;5.57;;
19343;SDS011;9808;52.402;16.678;2022-12-07T14:03:26;14.97;;;6.20;;
19343;SDS011;9808;52.402;16.678;2022-12-07T14:11:40;9.40;;;5.13;;
19343;SDS011;9808;52.402;16.678;2022-12-07T14:14:10;10.00;;;5.17;;
19343;SDS011;9808;52.402;16.678;2022-12-07T14:16:40;10.30;;;4.77;;
19343;SDS011;9808;52.402;16.678;2022-12-07T14:19:52;8.37;;;4.37;;
19343;SDS011;9808;52.402;16.678;2022-12-07T14:22:08;8.60;;;4.47;;
19343;SDS011;9808;52.402;16.678;2022-12-07T14:24:42;8.87;;;4.20;;
19343;SDS011;9808;52.402;16.678;2022-12-07T14:27:31;9.53;;;4.33;;
19343;SDS011;9808;52.402;16.678;2022-12-07T14:30:00;7.30;;;3.80;;
19343;SDS011;9808;52.402;16.678;2022-12-07T14:32:28;7.50;;;3.33;;
19343;SDS011;9808;52.402;16.678;2022-12-07T14:34:56;8.10;;;4.17;;
19343;SDS011;9808;52.402;16.678;2022-12-07T14:37:24;8.77;;;3.80;;
19343;SDS011;9808;52.402;16.678;2022-12-07T14:39:51;7.70;;;3.93;;
19343;SDS011;9808;52.402;16.678;2022-12-07T14:42:18;10.27;;;4.43;;
19343;SDS011;9808;52.402;16.678;2022-12-07T14:44:46;7.30;;;3.93;;
19343;SDS011;9808;52.402;16.678;2022-12-07T14:47:14;7.60;;;3.97;;
19343;SDS011;9808;52.402;16.678;2022-12-07T14:50:01;11.53;;;4.47;;
19343;SDS011;9808;52.402;16.678;2022-12-07T14:52:32;8.33;;;4.10;;
19343;SDS011;9808;52.402;16.678;2022-12-07T14:57:50;8.53;;;4.63;;
19343;SDS011;9808;52.402;16.678;2022-12-07T15:00:17;10.30;;;5.40;;
19343;SDS011;9808;52.402;16.678;2022-12-07T15:02:45;10.53;;;5.13;;
19343;SDS011;9808;52.402;16.678;2022-12-07T15:05:12;9.90;;;5.23;;
19343;SDS011;9808;52.402;16.678;2022-12-07T15:07:42;10.70;;;5.27;;
19343;SDS011;9808;52.402;16.678;2022-12-07T15:10:14;11.73;;;5.83;;
19343;SDS011;9808;52.402;16.678;2022-12-07T15:12:49;12.87;;;5.17;;
19343;SDS011;9808;52.402;16.678;2022-12-07T15:15:16;8.47;;;4.43;;
19343;SDS011;9808;52.402;16.678;2022-12-07T15:17:44;9.97;;;4.97;;
19343;SDS011;9808;52.402;16.678;2022-12-07T15:20:12;9.93;;;4.97;;
19343;SDS011;9808;52.402;16.678;2022-12-07T15:22:40;12.43;;;5.47;;
19343;SDS011;9808;52.402;16.678;2022-12-07T15:25:08;9.47;;;4.80;;
19343;SDS011;9808;52.402;16.678;2022-12-07T15:27:35;12.97;;;5.53;;
19343;SDS011;9808;52.402;16.678;2022-12-07T15:30:02;14.00;;;5.80;;
19343;SDS011;9808;52.402;16.678;2022-12-07T15:32:30;12.17;;;5.33;;
19343;SDS011;9808;52.402;16.678;2022-12-07T15:34:57;17.07;;;7.40;;
19343;SDS011;9808;52.402;16.678;2022-12-07T15:37:25;14.13;;;7.07;;
19343;SDS011;9808;52.402;16.678;2022-12-07T15:39:52;13.83;;;6.80;;
19343;SDS011;9808;52.402;16.678;2022-12-07T15:42:19;12.00;;;6.10;;
19343;SDS011;9808;52.402;16.678;2022-12-07T15:44:46;12.23;;;5.43;;
19343;SDS011;9808;52.402;16.678;2022-12-07T15:47:42;10.07;;;5.30;;
19343;SDS011;9808;52.402;16.678;2022-12-07T15:50:33;10.67;;;5.03;;
19343;SDS011;9808;52.402;16.678;2022-12-07T15:53:00;10.63;;;5.07;;
19343;SDS011;9808;52.402;16.678;2022-12-07T15:55:27;9.60;;;4.87;;
19343;SDS011;9808;52.402;16.678;2022-12-07T15:57:54;13.37;;;5.10;;
19343;SDS011;9808;52.402;16.678;2022-12-07T16:00:21;11.40;;;5.30;;
19343;SDS011;9808;52.402;16.678;2022-12-07T16:02:49;11.53;;;5.43;;
19343;SDS011;9808;52.402;16.678;2022-12-07T16:05:16;10.70;;;5.47;;
19343;SDS011;9808;52.402;16.678;2022-12-07T16:07:43;13.67;;;6.30;;
19343;SDS011;9808;52.402;16.678;2022-12-07T16:10:13;14.20;;;6.23;;
19343;SDS011;9808;52.402;16.678;2022-12-07T16:12:40;13.07;;;5.97;;
19343;SDS011;9808;52.402;16.678;2022-12-07T16:15:07;13.00;;;6.67;;
19343;SDS011;9808;52.402;16.678;2022-12-07T16:17:34;14.60;;;6.70;;
19343;SDS011;9808;52.402;16.678;2022-12-07T16:20:02;15.50;;;7.10;;
19343;SDS011;9808;52.402;16.678;2022-12-07T16:22:30;13.27;;;6.47;;
19343;SDS011;9808;52.402;16.678;2022-12-07T16:24:57;12.27;;;6.10;;
19343;SDS011;9808;52.402;16.678;2022-12-07T16:27:24;16.50;;;6.47;;
19343;SDS011;9808;52.402;16.678;2022-12-07T16:29:52;13.67;;;6.23;;
19343;SDS011;9808;52.402;16.678;2022-12-07T16:32:19;15.83;;;5.63;;
19343;SDS011;9808;52.402;16.678;2022-12-07T16:34:46;16.53;;;6.17;;
19343;SDS011;9808;52.402;16.678;2022-12-07T16:37:14;19.30;;;6.73;;
19343;SDS011;9808;52.402;16.678;2022-12-07T16:39:41;14.60;;;5.57;;
19343;SDS011;9808;52.402;16.678;2022-12-07T16:42:08;15.40;;;6.83;;
19343;SDS011;9808;52.402;16.678;2022-12-07T16:44:35;15.97;;;6.07;;
19343;SDS011;9808;52.402;16.678;2022-12-07T16:47:02;16.30;;;7.27;;
19343;SDS011;9808;52.402;16.678;2022-12-07T16:49:30;24.73;;;7.67;;
19343;SDS011;9808;52.402;16.678;2022-12-07T16:51:57;16.30;;;6.40;;
19343;SDS011;9808;52.402;16.678;2022-12-07T16:54:44;16.50;;;6.60;;
19343;SDS011;9808;52.402;16.678;2022-12-07T16:57:11;14.87;;;6.73;;
19343;SDS011;9808;52.402;16.678;2022-12-07T16:59:47;13.10;;;6.27;;
19343;SDS011;9808;52.402;16.678;2022-12-07T17:02:14;15.30;;;7.20;;
19343;SDS011;9808;52.402;16.678;2022-12-07T17:04:41;16.87;;;6.60;;
19343;SDS011;9808;52.402;16.678;2022-12-07T17:07:09;18.50;;;6.17;;
19343;SDS011;9808;52.402;16.678;2022-12-07T17:09:36;14.93;;;6.10;;